createdAt,value
2019-04-12T00:00:27.692Z,14.87
2019-04-12T00:02:54.355Z,16.20
2019-04-12T00:05:20.969Z,18.02
2019-04-12T00:07:47.678Z,14.65
2019-04-12T00:10:14.331Z,14.30
2019-04-12T00:12:40.998Z,16.57
2019-04-12T00:15:11.673Z,13.83
2019-04-12T00:17:36.468Z,16.02
2019-04-12T00:20:03.328Z,14.03
2019-04-12T00:22:29.875Z,13.30
2019-04-12T00:24:56.556Z,13.08
2019-04-12T00:27:23.202Z,11.60
2019-04-12T00:29:51.117Z,14.10
2019-04-12T00:32:21.180Z,13.18
2019-04-12T00:34:46.528Z,13.13
2019-04-12T00:37:13.295Z,14.58
2019-04-12T00:39:40.089Z,13.90
2019-04-12T00:42:06.847Z,13.70
2019-04-12T00:44:33.862Z,15.72
2019-04-12T00:47:00.982Z,14.15
2019-04-12T00:49:27.641Z,15.40
2019-04-12T00:51:54.310Z,14.40
2019-04-12T00:54:20.862Z,13.98
2019-04-12T00:56:47.663Z,13.58
2019-04-12T00:59:17.052Z,13.18
2019-04-12T01:01:43.096Z,12.33
2019-04-12T01:04:09.766Z,12.95
2019-04-12T01:06:36.618Z,12.43
2019-04-12T01:09:03.184Z,12.25
2019-04-12T01:11:30.150Z,13.03
2019-04-12T01:13:58.014Z,13.25
2019-04-12T01:16:24.898Z,13.50
2019-04-12T01:18:51.666Z,13.45
2019-04-12T01:21:18.419Z,13.45
2019-04-12T01:23:45.179Z,13.15
2019-04-12T01:26:13.085Z,13.03
2019-04-12T01:28:40.297Z,13.45
2019-04-12T01:31:07.015Z,13.50
2019-04-12T01:33:33.678Z,13.15
2019-04-12T01:36:00.337Z,14.23
2019-04-12T01:38:26.981Z,15.10
2019-04-12T01:40:53.756Z,15.23
2019-04-12T01:43:20.518Z,16.82
2019-04-12T01:45:47.179Z,18.77
2019-04-12T01:48:13.837Z,17.15
2019-04-12T01:50:40.491Z,15.98
2019-04-12T01:53:07.049Z,16.85
2019-04-12T01:55:33.822Z,16.23
2019-04-12T01:58:00.482Z,17.00
2019-04-12T02:00:27.031Z,19.67
2019-04-12T02:02:53.589Z,18.12
2019-04-12T02:05:20.345Z,14.55
2019-04-12T02:07:47.312Z,16.50
2019-04-12T02:10:14.280Z,15.80
2019-04-12T02:12:41.154Z,15.00
2019-04-12T02:15:07.922Z,16.05
2019-04-12T02:17:34.566Z,14.68
2019-04-12T02:20:01.231Z,14.33
2019-04-12T02:22:27.801Z,13.83
2019-04-12T02:24:54.457Z,15.00
2019-04-12T02:27:21.110Z,13.05
2019-04-12T02:29:47.882Z,11.90
2019-04-12T02:32:14.847Z,13.13
2019-04-12T02:34:41.626Z,12.53
2019-04-12T02:37:08.383Z,12.82
2019-04-12T02:39:35.150Z,12.05
2019-04-12T02:42:01.894Z,10.88
2019-04-12T02:44:28.750Z,11.50
2019-04-12T02:46:55.415Z,12.47
2019-04-12T02:49:22.086Z,11.90
2019-04-12T02:51:48.846Z,11.43
2019-04-12T02:54:15.613Z,12.53
2019-04-12T02:56:42.369Z,12.63
2019-04-12T02:59:09.132Z,11.55
2019-04-12T03:01:39.104Z,10.68
2019-04-12T03:04:04.292Z,11.45
2019-04-12T03:06:30.961Z,12.28
2019-04-12T03:08:57.719Z,10.18
2019-04-12T03:11:24.366Z,11.30
2019-04-12T03:13:50.942Z,10.95
2019-04-12T03:16:17.800Z,11.55
2019-04-12T03:18:44.565Z,10.78
2019-04-12T03:21:11.434Z,10.75
2019-04-12T03:23:38.194Z,10.80
2019-04-12T03:26:04.857Z,11.65
2019-04-12T03:28:31.498Z,10.40
2019-04-12T03:30:58.263Z,11.45
2019-04-12T03:33:24.944Z,12.00
2019-04-12T03:35:51.701Z,10.82
2019-04-12T03:38:18.451Z,10.90
2019-04-12T03:40:45.211Z,11.18
2019-04-12T03:43:12.082Z,12.25
2019-04-12T03:45:38.733Z,10.95
2019-04-12T03:48:05.201Z,12.53
2019-04-12T03:50:31.869Z,11.45
2019-04-12T03:52:58.616Z,10.60
2019-04-12T03:55:25.290Z,11.93
2019-04-12T03:57:52.054Z,11.63
2019-04-12T04:00:18.804Z,12.25
2019-04-12T04:02:45.576Z,10.70
2019-04-12T04:05:12.334Z,12.37
2019-04-12T04:07:39.090Z,12.98
2019-04-12T04:10:05.754Z,12.15
2019-04-12T04:12:32.414Z,10.53
2019-04-12T04:14:59.082Z,12.95
2019-04-12T04:17:25.833Z,11.25
2019-04-12T04:19:52.292Z,11.40
2019-04-12T04:22:18.958Z,11.57
2019-04-12T04:24:45.624Z,13.08
2019-04-12T04:27:12.535Z,12.30
2019-04-12T04:29:39.141Z,12.05
2019-04-12T04:32:05.806Z,13.90
2019-04-12T04:34:32.374Z,14.50
2019-04-12T04:36:59.027Z,13.85
2019-04-12T04:39:25.539Z,11.40
2019-04-12T04:41:52.295Z,13.32
2019-04-12T04:44:19.008Z,12.65
2019-04-12T04:46:45.855Z,10.98
2019-04-12T04:49:12.734Z,11.70
2019-04-12T04:51:39.389Z,11.80
2019-04-12T04:54:05.961Z,11.80
2019-04-12T04:56:34.285Z,12.10
2019-04-12T04:59:01.111Z,12.58
2019-04-12T05:01:27.774Z,12.63
2019-04-12T05:03:54.642Z,11.80
2019-04-12T05:06:21.398Z,12.90
2019-04-12T05:08:48.050Z,11.78
2019-04-12T05:11:14.714Z,11.35
2019-04-12T05:13:41.485Z,11.88
2019-04-12T05:16:08.246Z,12.90
2019-04-12T05:18:34.907Z,12.70
2019-04-12T05:21:01.666Z,13.20
2019-04-12T05:23:28.222Z,12.50
2019-04-12T05:25:54.983Z,13.48
2019-04-12T05:28:23.044Z,12.15
2019-04-12T05:30:49.934Z,13.60
2019-04-12T05:33:16.711Z,14.10
2019-04-12T05:35:43.364Z,14.00
2019-04-12T05:38:10.237Z,14.70
2019-04-12T05:40:36.991Z,14.05
2019-04-12T05:43:03.652Z,14.53
2019-04-12T05:45:30.525Z,17.05
2019-04-12T05:47:57.276Z,19.05
2019-04-12T05:50:23.943Z,18.35
2019-04-12T05:52:50.819Z,19.00
2019-04-12T05:55:17.578Z,17.35
2019-04-12T05:57:44.436Z,16.55
2019-04-12T06:00:12.009Z,15.75
2019-04-12T06:02:39.494Z,15.55
2019-04-12T06:05:06.056Z,15.65
2019-04-12T06:07:32.810Z,16.62
2019-04-12T06:09:59.483Z,15.43
2019-04-12T06:12:26.145Z,16.15
2019-04-12T06:14:52.789Z,15.68
2019-04-12T06:17:19.564Z,15.80
2019-04-12T06:19:46.227Z,14.58
2019-04-12T06:22:12.985Z,17.20
2019-04-12T06:24:39.644Z,15.75
2019-04-12T06:27:10.211Z,16.32
2019-04-12T06:29:34.806Z,15.78
2019-04-12T06:32:01.571Z,14.95
2019-04-12T06:34:28.216Z,15.35
2019-04-12T06:36:55.092Z,14.45
2019-04-12T06:39:22.056Z,15.45
2019-04-12T06:41:48.726Z,16.17
2019-04-12T06:44:15.571Z,14.10
2019-04-12T06:46:42.338Z,13.80
2019-04-12T06:49:09.000Z,14.45
2019-04-12T06:51:35.666Z,14.60
2019-04-12T06:54:02.323Z,13.45
2019-04-12T06:56:28.881Z,13.18
2019-04-12T06:58:55.743Z,13.58
2019-04-12T07:01:22.515Z,14.33
2019-04-12T07:03:56.619Z,14.18
2019-04-12T07:06:17.766Z,13.10
2019-04-12T07:08:44.445Z,13.78
2019-04-12T07:11:11.202Z,13.70
2019-04-12T07:13:38.065Z,13.75
2019-04-12T07:16:04.850Z,13.78
2019-04-12T07:18:31.583Z,13.53
2019-04-12T07:20:58.246Z,13.05
2019-04-12T07:23:24.907Z,13.53
2019-04-12T07:25:51.767Z,12.63
2019-04-12T07:28:18.425Z,13.70
2019-04-12T07:30:56.164Z,14.30
2019-04-12T07:33:13.504Z,14.28
2019-04-12T07:35:40.149Z,14.28
2019-04-12T07:38:06.807Z,14.87
2019-04-12T07:40:33.465Z,14.35
2019-04-12T07:43:00.147Z,14.43
2019-04-12T07:45:26.991Z,14.05
2019-04-12T07:47:53.652Z,13.83
2019-04-12T07:50:20.328Z,13.98
2019-04-12T07:52:47.085Z,14.63
2019-04-12T07:55:13.730Z,15.58
2019-04-12T07:57:46.948Z,14.98
2019-04-12T08:00:08.706Z,14.20
2019-04-12T08:02:35.426Z,14.55
2019-04-12T08:05:02.115Z,15.15
2019-04-12T08:07:28.897Z,14.10
2019-04-12T08:09:55.652Z,13.53
2019-04-12T08:12:22.513Z,15.23
2019-04-12T08:14:49.362Z,14.60
2019-04-12T08:17:15.931Z,14.90
2019-04-12T08:19:42.492Z,14.90
2019-04-12T08:22:09.146Z,15.23
2019-04-12T08:24:37.916Z,13.78
2019-04-12T08:27:04.423Z,15.35
2019-04-12T08:29:31.388Z,13.93
2019-04-12T08:31:58.350Z,14.80
2019-04-12T08:34:25.215Z,14.63
2019-04-12T08:36:52.082Z,13.65
2019-04-12T08:39:18.955Z,14.58
2019-04-12T08:41:46.841Z,14.73
2019-04-12T08:44:13.753Z,14.60
2019-04-12T08:46:40.458Z,14.35
2019-04-12T08:49:07.118Z,14.53
2019-04-12T08:51:33.780Z,13.70
2019-04-12T08:54:01.133Z,15.23
2019-04-12T08:56:28.178Z,14.78
2019-04-12T08:58:54.992Z,16.10
2019-04-12T09:01:21.867Z,14.50
2019-04-12T09:03:48.636Z,15.80
2019-04-12T09:06:15.658Z,15.63
2019-04-12T09:08:42.597Z,15.53
2019-04-12T09:11:09.695Z,15.00
2019-04-12T09:13:36.694Z,15.25
2019-04-12T09:16:03.750Z,15.03
2019-04-12T09:18:30.898Z,14.15
2019-04-12T09:20:58.137Z,15.30
2019-04-12T09:23:25.297Z,12.85
2019-04-12T09:25:52.260Z,13.80
2019-04-12T09:28:25.129Z,12.88
2019-04-12T09:30:47.742Z,13.50
2019-04-12T09:33:14.675Z,13.93
2019-04-12T09:35:41.458Z,13.18
2019-04-12T09:38:08.368Z,12.60
2019-04-12T09:40:35.177Z,13.50
2019-04-12T09:43:02.142Z,12.10
2019-04-12T09:45:29.007Z,12.65
2019-04-12T09:47:55.671Z,11.40
2019-04-12T09:50:22.640Z,12.23
2019-04-12T09:52:49.533Z,11.00
2019-04-12T09:55:16.457Z,11.65
2019-04-12T09:57:43.221Z,11.35
2019-04-12T10:00:09.893Z,13.85
2019-04-12T10:02:36.654Z,12.40
2019-04-12T10:05:03.604Z,14.03
2019-04-12T10:07:30.388Z,12.47
2019-04-12T10:09:57.406Z,13.13
2019-04-12T10:12:24.303Z,12.78
2019-04-12T10:14:50.977Z,11.25
2019-04-12T10:17:17.727Z,10.50
2019-04-12T10:19:44.591Z,11.60
2019-04-12T10:22:11.259Z,11.20
2019-04-12T10:24:38.023Z,10.95
2019-04-12T10:27:04.880Z,11.70
2019-04-12T10:29:31.545Z,11.43
2019-04-12T10:31:58.305Z,11.90
2019-04-12T10:34:25.480Z,9.80
2019-04-12T10:36:52.344Z,11.50
2019-04-12T10:39:19.120Z,11.20
2019-04-12T10:41:46.013Z,10.38
2019-04-12T10:44:12.996Z,10.68
2019-04-12T10:46:39.897Z,10.60
2019-04-12T10:49:06.873Z,11.45
2019-04-12T10:51:33.522Z,11.50
2019-04-12T10:54:00.295Z,10.63
2019-04-12T10:56:27.063Z,11.97
2019-04-12T10:59:02.771Z,10.78
2019-04-12T11:01:22.313Z,10.82
2019-04-12T11:03:49.188Z,10.35
2019-04-12T11:06:15.741Z,10.65
2019-04-12T11:08:42.414Z,10.82
2019-04-12T11:11:09.382Z,9.43
2019-04-12T11:13:36.145Z,10.10
2019-04-12T11:16:03.046Z,10.58
2019-04-12T11:18:29.975Z,10.50
2019-04-12T11:20:56.946Z,9.05
2019-04-12T11:23:23.912Z,10.30
2019-04-12T11:25:50.657Z,10.90
2019-04-12T11:28:17.727Z,9.45
2019-04-12T11:30:44.387Z,9.38
2019-04-12T11:33:11.155Z,12.43
2019-04-12T11:35:37.936Z,11.40
2019-04-12T11:38:04.676Z,10.40
2019-04-12T11:40:31.405Z,10.45
2019-04-12T11:42:58.300Z,10.58
2019-04-12T11:45:24.969Z,11.20
2019-04-12T11:47:51.727Z,9.70
2019-04-12T11:50:18.499Z,10.58
2019-04-12T11:52:45.196Z,10.68
2019-04-12T11:55:11.814Z,9.75
2019-04-12T11:57:38.678Z,9.18
2019-04-12T12:00:05.324Z,8.80
2019-04-12T12:02:31.999Z,10.55
2019-04-12T12:04:58.456Z,10.78
2019-04-12T12:07:25.011Z,10.35
2019-04-12T12:09:51.771Z,10.80
2019-04-12T12:12:18.327Z,10.65
2019-04-12T12:14:45.207Z,8.63
2019-04-12T12:17:11.869Z,8.20
2019-04-12T12:19:38.628Z,8.50
2019-04-12T12:22:05.488Z,8.93
2019-04-12T12:24:32.187Z,8.45
2019-04-12T12:26:59.006Z,8.13
2019-04-12T12:29:25.792Z,9.40
2019-04-12T12:31:52.530Z,9.60
2019-04-12T12:34:19.209Z,8.80
2019-04-12T12:36:46.067Z,8.85
2019-04-12T12:39:12.629Z,9.95
2019-04-12T12:41:39.376Z,9.58
2019-04-12T12:44:06.243Z,9.70
2019-04-12T12:46:32.923Z,9.30
2019-04-12T12:48:59.661Z,8.95
2019-04-12T12:51:26.241Z,10.82
2019-04-12T12:53:52.981Z,9.65
2019-04-12T12:56:19.660Z,10.10
2019-04-12T12:58:46.522Z,8.50
2019-04-12T13:01:13.181Z,9.43
2019-04-12T13:03:40.045Z,8.75
2019-04-12T13:06:06.922Z,8.23
2019-04-12T13:08:33.688Z,7.80
2019-04-12T13:11:00.338Z,8.58
2019-04-12T13:13:27.298Z,8.78
2019-04-12T13:15:54.061Z,7.35
2019-04-12T13:18:20.738Z,8.90
2019-04-12T13:20:47.580Z,7.55
2019-04-12T13:23:14.262Z,8.23
2019-04-12T13:25:41.118Z,8.35
2019-04-12T13:28:07.766Z,9.03
2019-04-12T13:30:34.426Z,8.80
2019-04-12T13:33:01.186Z,8.30
2019-04-12T13:35:27.860Z,8.30
2019-04-12T13:37:54.611Z,8.40
2019-04-12T13:40:21.390Z,7.70
2019-04-12T13:42:48.148Z,8.03
2019-04-12T13:45:15.001Z,7.10
2019-04-12T13:47:41.764Z,8.28
2019-04-12T13:50:08.541Z,8.63
2019-04-12T13:52:35.297Z,9.25
2019-04-12T13:55:02.047Z,9.18
2019-04-12T13:57:29.853Z,8.65
2019-04-12T13:59:56.611Z,8.78
2019-04-12T14:02:23.464Z,8.85
2019-04-12T14:04:50.120Z,9.03
2019-04-12T14:07:16.795Z,9.58
2019-04-12T14:09:43.719Z,9.18
2019-04-12T14:12:10.520Z,9.30
2019-04-12T14:14:37.278Z,9.50
2019-04-12T14:17:04.040Z,10.05
2019-04-12T14:19:30.907Z,9.10
2019-04-12T14:21:57.665Z,8.63
2019-04-12T14:24:24.324Z,9.30
2019-04-12T14:26:51.098Z,9.75
2019-04-12T14:29:17.956Z,9.53
2019-04-12T14:31:44.718Z,11.20
2019-04-12T14:34:13.734Z,9.25
2019-04-12T14:36:40.030Z,9.70
2019-04-12T14:39:06.841Z,9.53
2019-04-12T14:41:33.614Z,10.35
2019-04-12T14:44:01.562Z,9.45
2019-04-12T14:46:28.374Z,9.43
2019-04-12T14:48:55.273Z,9.55
2019-04-12T14:51:22.200Z,11.00
2019-04-12T14:53:48.959Z,9.33
2019-04-12T14:56:15.620Z,9.25
2019-04-12T14:58:42.255Z,10.48
2019-04-12T15:01:10.249Z,10.53
2019-04-12T15:03:37.144Z,10.15
2019-04-12T15:06:07.073Z,10.93
2019-04-12T15:08:33.936Z,10.82
2019-04-12T15:11:00.733Z,11.00
2019-04-12T15:13:27.568Z,9.50
2019-04-12T15:15:54.531Z,9.70
2019-04-12T15:18:21.172Z,8.38
2019-04-12T15:20:47.856Z,9.43
2019-04-12T15:23:14.814Z,10.20
2019-04-12T15:25:41.574Z,10.60
2019-04-12T15:28:08.344Z,10.50
2019-04-12T15:30:35.103Z,10.28
2019-04-12T15:33:01.765Z,10.15
2019-04-12T15:35:28.565Z,10.32
2019-04-12T15:37:55.533Z,9.90
2019-04-12T15:40:22.364Z,9.75
2019-04-12T15:42:49.226Z,9.85
2019-04-12T15:45:15.975Z,10.80
2019-04-12T15:47:42.854Z,8.85
2019-04-12T15:50:09.522Z,10.03
2019-04-12T15:52:36.369Z,11.30
2019-04-12T15:55:03.027Z,10.05
2019-04-12T15:57:29.996Z,10.70
2019-04-12T15:59:56.661Z,9.85
2019-04-12T16:02:23.463Z,12.70
2019-04-12T16:04:50.393Z,10.53
2019-04-12T16:07:17.151Z,11.08
2019-04-12T16:09:44.216Z,11.08
2019-04-12T16:12:10.901Z,11.25
2019-04-12T16:14:37.744Z,12.55
2019-04-12T16:17:04.721Z,10.40
2019-04-12T16:19:31.385Z,10.70
2019-04-12T16:21:58.345Z,11.33
2019-04-12T16:24:25.164Z,12.30
2019-04-12T16:26:52.078Z,12.20
2019-04-12T16:29:18.922Z,10.88
2019-04-12T16:31:45.593Z,11.30
2019-04-12T16:34:12.472Z,11.83
2019-04-12T16:36:39.319Z,11.03
2019-04-12T16:39:07.363Z,11.60
2019-04-12T16:41:34.277Z,12.13
2019-04-12T16:44:00.831Z,12.68
2019-04-12T16:46:34.235Z,12.00
2019-04-12T16:48:56.107Z,11.60
2019-04-12T16:51:22.670Z,12.33
2019-04-12T16:53:49.467Z,12.30
2019-04-12T16:56:16.347Z,11.33
2019-04-12T16:58:43.360Z,12.33
2019-04-12T17:01:10.020Z,12.15
2019-04-12T17:03:36.780Z,12.50
2019-04-12T17:06:03.541Z,12.30
2019-04-12T17:08:30.200Z,13.45
2019-04-12T17:10:56.861Z,12.40
2019-04-12T17:13:23.520Z,12.55
2019-04-12T17:15:50.080Z,11.88
2019-04-12T17:18:16.755Z,11.95
2019-04-12T17:20:43.718Z,12.30
2019-04-12T17:23:10.572Z,12.20
2019-04-12T17:25:37.234Z,12.40
2019-04-12T17:28:04.119Z,12.13
2019-04-12T17:30:30.957Z,12.35
2019-04-12T17:32:57.723Z,10.95
2019-04-12T17:35:24.430Z,11.85
2019-04-12T17:37:51.367Z,11.55
2019-04-12T17:40:18.116Z,11.18
2019-04-12T17:42:44.782Z,11.97
2019-04-12T17:45:11.565Z,10.78
2019-04-12T17:47:38.305Z,11.93
2019-04-12T17:50:04.948Z,11.78
2019-04-12T17:52:31.533Z,11.45
2019-04-12T17:54:58.282Z,12.07
2019-04-12T17:57:25.064Z,11.73
2019-04-12T17:59:51.823Z,12.25
2019-04-12T18:02:18.665Z,12.10
2019-04-12T18:04:45.559Z,12.45
2019-04-12T18:07:12.412Z,13.60
2019-04-12T18:09:39.377Z,12.55
2019-04-12T18:12:06.194Z,13.35
2019-04-12T18:14:32.892Z,12.78
2019-04-12T18:16:59.666Z,13.72
2019-04-12T18:19:26.315Z,13.68
2019-04-12T18:21:53.246Z,12.70
2019-04-12T18:24:20.061Z,12.60
2019-04-12T18:26:46.929Z,12.07
2019-04-12T18:29:13.778Z,12.33
2019-04-12T18:31:40.543Z,14.00
2019-04-12T18:34:07.195Z,13.48
2019-04-12T18:36:33.855Z,13.08
2019-04-12T18:39:00.728Z,14.33
2019-04-12T18:41:27.394Z,13.50
2019-04-12T18:43:54.058Z,14.90
2019-04-12T18:46:21.078Z,13.38
2019-04-12T18:48:47.991Z,14.10
2019-04-12T18:51:14.947Z,13.22
2019-04-12T18:53:41.617Z,12.10
2019-04-12T18:56:08.466Z,13.85
2019-04-12T18:58:35.235Z,14.95
2019-04-12T19:01:01.889Z,14.40
2019-04-12T19:03:28.666Z,14.15
2019-04-12T19:05:55.428Z,15.05
2019-04-12T19:08:22.287Z,15.43
2019-04-12T19:10:49.155Z,14.55
2019-04-12T19:13:15.916Z,15.23
2019-04-12T19:15:42.791Z,16.52
2019-04-12T19:18:09.866Z,15.65
2019-04-12T19:20:36.607Z,14.53
2019-04-12T19:23:03.375Z,16.05
2019-04-12T19:25:30.124Z,15.15
2019-04-12T19:27:57.008Z,15.30
2019-04-12T19:30:23.775Z,16.42
2019-04-12T19:32:50.734Z,15.85
2019-04-12T19:35:17.690Z,16.50
2019-04-12T19:37:44.469Z,16.50
2019-04-12T19:40:11.465Z,17.75
2019-04-12T19:42:38.384Z,17.37
2019-04-12T19:45:05.050Z,16.27
2019-04-12T19:47:31.920Z,15.95
2019-04-12T19:49:58.574Z,17.90
2019-04-12T19:52:25.236Z,16.82
2019-04-12T19:54:52.208Z,16.35
2019-04-12T19:57:18.961Z,15.60
2019-04-12T19:59:45.641Z,15.68
2019-04-12T20:02:13.607Z,17.02
2019-04-12T20:04:40.381Z,15.58
2019-04-12T20:07:07.053Z,16.02
2019-04-12T20:09:33.895Z,16.00
2019-04-12T20:12:12.102Z,16.25
2019-04-12T20:14:29.281Z,15.65
2019-04-12T20:16:56.247Z,17.67
2019-04-12T20:19:22.902Z,19.02
2019-04-12T20:21:49.660Z,17.32
2019-04-12T20:24:16.744Z,15.50
2019-04-12T20:26:43.400Z,16.00
2019-04-12T20:29:10.267Z,13.98
2019-04-12T20:31:37.020Z,15.23
2019-04-12T20:34:03.686Z,15.30
2019-04-12T20:36:30.562Z,14.70
2019-04-12T20:38:57.420Z,15.15
2019-04-12T20:41:24.180Z,14.35
2019-04-12T20:43:51.100Z,14.85
2019-04-12T20:46:18.000Z,13.98
2019-04-12T20:48:44.759Z,13.83
2019-04-12T20:51:11.419Z,14.33
2019-04-12T20:53:38.100Z,14.15
2019-04-12T20:56:15.008Z,13.70
2019-04-12T20:58:33.239Z,13.58
2019-04-12T21:00:59.920Z,13.88
2019-04-12T21:03:26.584Z,14.40
2019-04-12T21:05:53.540Z,14.28
2019-04-12T21:08:20.199Z,14.40
2019-04-12T21:10:46.962Z,15.23
2019-04-12T21:13:13.922Z,14.43
2019-04-12T21:15:40.690Z,14.85
